sensor_id;sensor_type;location;lat;lon;timestamp;P1;durP1;ratioP1;P2;durP2;ratioP2
68229;SDS011;55048;52.220;5.160;2023-07-09T00:00:03;6.68;;;4.57;;
68229;SDS011;55048;52.220;5.160;2023-07-09T00:02:35;11.07;;;4.80;;
68229;SDS011;55048;52.220;5.160;2023-07-09T00:05:00;8.82;;;5.00;;
68229;SDS011;55048;52.220;5.160;2023-07-09T00:07:30;11.38;;;4.65;;
68229;SDS011;55048;52.220;5.160;2023-07-09T00:09:57;9.05;;;4.10;;
68229;SDS011;55048;52.220;5.160;2023-07-09T00:12:23;6.43;;;4.38;;
68229;SDS011;55048;52.220;5.160;2023-07-09T00:14:49;9.60;;;4.80;;
68229;SDS011;55048;52.220;5.160;2023-07-09T00:17:19;8.50;;;4.60;;
68229;SDS011;55048;52.220;5.160;2023-07-09T00:19:49;5.50;;;4.22;;
68229;SDS011;55048;52.220;5.160;2023-07-09T00:22:15;8.75;;;5.13;;
68229;SDS011;55048;52.220;5.160;2023-07-09T00:24:45;7.03;;;4.80;;
68229;SDS011;55048;52.220;5.160;2023-07-09T00:27:13;10.73;;;5.45;;
68229;SDS011;55048;52.220;5.160;2023-07-09T00:29:40;8.90;;;4.72;;
68229;SDS011;55048;52.220;5.160;2023-07-09T00:32:11;8.40;;;4.80;;
68229;SDS011;55048;52.220;5.160;2023-07-09T00:34:40;10.18;;;5.35;;
68229;SDS011;55048;52.220;5.160;2023-07-09T00:37:15;9.40;;;4.95;;
68229;SDS011;55048;52.220;5.160;2023-07-09T00:39:43;11.68;;;4.65;;
68229;SDS011;55048;52.220;5.160;2023-07-09T00:42:16;21.15;;;4.88;;
68229;SDS011;55048;52.220;5.160;2023-07-09T00:44:44;7.38;;;5.00;;
68229;SDS011;55048;52.220;5.160;2023-07-09T00:47:22;15.27;;;5.20;;
68229;SDS011;55048;52.220;5.160;2023-07-09T00:50:29;9.38;;;5.20;;
68229;SDS011;55048;52.220;5.160;2023-07-09T00:52:59;13.43;;;5.25;;
68229;SDS011;55048;52.220;5.160;2023-07-09T00:55:32;7.82;;;4.45;;
68229;SDS011;55048;52.220;5.160;2023-07-09T00:58:03;10.23;;;4.47;;
68229;SDS011;55048;52.220;5.160;2023-07-09T01:00:32;11.48;;;4.95;;
68229;SDS011;55048;52.220;5.160;2023-07-09T01:03:09;12.80;;;4.85;;
68229;SDS011;55048;52.220;5.160;2023-07-09T01:05:37;11.68;;;4.47;;
68229;SDS011;55048;52.220;5.160;2023-07-09T01:08:05;11.45;;;4.50;;
68229;SDS011;55048;52.220;5.160;2023-07-09T01:10:34;8.05;;;4.68;;
68229;SDS011;55048;52.220;5.160;2023-07-09T01:13:00;9.52;;;4.18;;
68229;SDS011;55048;52.220;5.160;2023-07-09T01:15:26;12.57;;;4.35;;
68229;SDS011;55048;52.220;5.160;2023-07-09T01:17:52;8.80;;;4.47;;
68229;SDS011;55048;52.220;5.160;2023-07-09T01:20:19;8.80;;;4.00;;
68229;SDS011;55048;52.220;5.160;2023-07-09T01:22:49;9.02;;;4.43;;
68229;SDS011;55048;52.220;5.160;2023-07-09T01:25:20;7.13;;;4.55;;
68229;SDS011;55048;52.220;5.160;2023-07-09T01:27:46;9.40;;;4.10;;
68229;SDS011;55048;52.220;5.160;2023-07-09T01:30:18;13.65;;;4.05;;
68229;SDS011;55048;52.220;5.160;2023-07-09T01:32:56;7.80;;;4.28;;
68229;SDS011;55048;52.220;5.160;2023-07-09T01:35:24;5.82;;;4.20;;
68229;SDS011;55048;52.220;5.160;2023-07-09T01:37:51;13.38;;;4.85;;
68229;SDS011;55048;52.220;5.160;2023-07-09T01:40:18;6.38;;;3.90;;
68229;SDS011;55048;52.220;5.160;2023-07-09T01:42:46;8.45;;;4.75;;
68229;SDS011;55048;52.220;5.160;2023-07-09T01:45:12;9.63;;;4.47;;
68229;SDS011;55048;52.220;5.160;2023-07-09T01:47:38;9.27;;;4.50;;
68229;SDS011;55048;52.220;5.160;2023-07-09T01:50:05;9.00;;;4.85;;
68229;SDS011;55048;52.220;5.160;2023-07-09T01:52:31;11.57;;;4.57;;
68229;SDS011;55048;52.220;5.160;2023-07-09T01:55:00;9.30;;;4.55;;
68229;SDS011;55048;52.220;5.160;2023-07-09T01:57:26;9.65;;;4.75;;
68229;SDS011;55048;52.220;5.160;2023-07-09T02:00:10;13.13;;;5.15;;
68229;SDS011;55048;52.220;5.160;2023-07-09T02:02:42;11.95;;;5.38;;
68229;SDS011;55048;52.220;5.160;2023-07-09T02:05:19;13.88;;;5.60;;
68229;SDS011;55048;52.220;5.160;2023-07-09T02:07:45;8.75;;;4.93;;
68229;SDS011;55048;52.220;5.160;2023-07-09T02:10:12;9.18;;;5.40;;
68229;SDS011;55048;52.220;5.160;2023-07-09T02:12:38;13.10;;;6.00;;
68229;SDS011;55048;52.220;5.160;2023-07-09T02:15:03;10.15;;;5.22;;
68229;SDS011;55048;52.220;5.160;2023-07-09T02:17:29;9.90;;;5.30;;
68229;SDS011;55048;52.220;5.160;2023-07-09T02:19:54;8.95;;;5.15;;
68229;SDS011;55048;52.220;5.160;2023-07-09T02:22:20;8.52;;;5.30;;
68229;SDS011;55048;52.220;5.160;2023-07-09T02:24:45;8.30;;;5.03;;
68229;SDS011;55048;52.220;5.160;2023-07-09T02:27:14;7.47;;;5.13;;
68229;SDS011;55048;52.220;5.160;2023-07-09T02:29:41;10.88;;;5.25;;
68229;SDS011;55048;52.220;5.160;2023-07-09T02:32:07;10.25;;;5.10;;
68229;SDS011;55048;52.220;5.160;2023-07-09T02:34:32;10.48;;;4.57;;
68229;SDS011;55048;52.220;5.160;2023-07-09T02:36:58;9.88;;;5.13;;
68229;SDS011;55048;52.220;5.160;2023-07-09T02:39:25;10.05;;;5.10;;
68229;SDS011;55048;52.220;5.160;2023-07-09T02:41:51;11.23;;;5.55;;
68229;SDS011;55048;52.220;5.160;2023-07-09T02:44:16;10.43;;;5.25;;
68229;SDS011;55048;52.220;5.160;2023-07-09T02:46:43;14.95;;;5.72;;
68229;SDS011;55048;52.220;5.160;2023-07-09T02:49:09;14.98;;;5.30;;
68229;SDS011;55048;52.220;5.160;2023-07-09T02:51:36;9.07;;;5.30;;
68229;SDS011;55048;52.220;5.160;2023-07-09T02:54:02;10.48;;;5.10;;
68229;SDS011;55048;52.220;5.160;2023-07-09T02:56:28;8.02;;;5.47;;
68229;SDS011;55048;52.220;5.160;2023-07-09T02:58:54;10.15;;;5.32;;
68229;SDS011;55048;52.220;5.160;2023-07-09T03:01:20;11.80;;;5.20;;
68229;SDS011;55048;52.220;5.160;2023-07-09T03:03:52;9.07;;;4.88;;
68229;SDS011;55048;52.220;5.160;2023-07-09T03:06:23;10.45;;;5.35;;
68229;SDS011;55048;52.220;5.160;2023-07-09T03:08:49;8.57;;;5.05;;
68229;SDS011;55048;52.220;5.160;2023-07-09T03:11:15;10.02;;;5.63;;
68229;SDS011;55048;52.220;5.160;2023-07-09T03:13:41;7.88;;;5.50;;
68229;SDS011;55048;52.220;5.160;2023-07-09T03:16:06;9.63;;;5.47;;
68229;SDS011;55048;52.220;5.160;2023-07-09T03:18:32;10.60;;;5.68;;
68229;SDS011;55048;52.220;5.160;2023-07-09T03:20:57;10.23;;;5.68;;
68229;SDS011;55048;52.220;5.160;2023-07-09T03:23:23;13.75;;;5.95;;
68229;SDS011;55048;52.220;5.160;2023-07-09T03:25:49;13.70;;;5.78;;
68229;SDS011;55048;52.220;5.160;2023-07-09T03:28:14;16.65;;;6.32;;
68229;SDS011;55048;52.220;5.160;2023-07-09T03:30:44;11.10;;;5.00;;
68229;SDS011;55048;52.220;5.160;2023-07-09T03:33:11;12.32;;;6.03;;
68229;SDS011;55048;52.220;5.160;2023-07-09T03:35:38;6.90;;;5.15;;
68229;SDS011;55048;52.220;5.160;2023-07-09T03:38:05;15.45;;;6.30;;
68229;SDS011;55048;52.220;5.160;2023-07-09T03:40:31;11.88;;;5.45;;
68229;SDS011;55048;52.220;5.160;2023-07-09T03:42:57;7.40;;;5.18;;
68229;SDS011;55048;52.220;5.160;2023-07-09T03:45:23;12.43;;;5.68;;
68229;SDS011;55048;52.220;5.160;2023-07-09T03:47:48;9.25;;;5.63;;
68229;SDS011;55048;52.220;5.160;2023-07-09T03:50:14;8.45;;;5.68;;
68229;SDS011;55048;52.220;5.160;2023-07-09T03:52:39;11.48;;;5.53;;
68229;SDS011;55048;52.220;5.160;2023-07-09T03:55:05;10.25;;;6.00;;
68229;SDS011;55048;52.220;5.160;2023-07-09T03:57:31;11.85;;;5.78;;
68229;SDS011;55048;52.220;5.160;2023-07-09T03:59:58;11.60;;;5.90;;
68229;SDS011;55048;52.220;5.160;2023-07-09T04:02:23;10.90;;;5.50;;
68229;SDS011;55048;52.220;5.160;2023-07-09T04:04:49;13.70;;;5.60;;
68229;SDS011;55048;52.220;5.160;2023-07-09T04:07:15;7.78;;;5.63;;
68229;SDS011;55048;52.220;5.160;2023-07-09T04:09:41;11.27;;;5.90;;
68229;SDS011;55048;52.220;5.160;2023-07-09T04:12:07;12.27;;;5.90;;
68229;SDS011;55048;52.220;5.160;2023-07-09T04:14:34;9.85;;;5.47;;
68229;SDS011;55048;52.220;5.160;2023-07-09T04:17:00;12.82;;;5.72;;
68229;SDS011;55048;52.220;5.160;2023-07-09T04:19:25;10.48;;;5.70;;
68229;SDS011;55048;52.220;5.160;2023-07-09T04:21:51;10.80;;;6.35;;
68229;SDS011;55048;52.220;5.160;2023-07-09T04:24:17;15.77;;;6.05;;
68229;SDS011;55048;52.220;5.160;2023-07-09T04:26:43;11.18;;;5.97;;
68229;SDS011;55048;52.220;5.160;2023-07-09T04:29:09;9.55;;;5.88;;
68229;SDS011;55048;52.220;5.160;2023-07-09T04:31:35;12.55;;;6.07;;
68229;SDS011;55048;52.220;5.160;2023-07-09T04:34:00;10.38;;;5.07;;
68229;SDS011;55048;52.220;5.160;2023-07-09T04:36:25;8.88;;;6.32;;
68229;SDS011;55048;52.220;5.160;2023-07-09T04:38:51;9.93;;;5.78;;
68229;SDS011;55048;52.220;5.160;2023-07-09T04:41:17;17.90;;;5.93;;
68229;SDS011;55048;52.220;5.160;2023-07-09T04:43:43;11.30;;;5.82;;
68229;SDS011;55048;52.220;5.160;2023-07-09T04:46:09;11.38;;;6.00;;
68229;SDS011;55048;52.220;5.160;2023-07-09T04:48:34;12.35;;;5.95;;
68229;SDS011;55048;52.220;5.160;2023-07-09T04:51:00;8.52;;;5.95;;
68229;SDS011;55048;52.220;5.160;2023-07-09T04:53:25;8.38;;;5.97;;
68229;SDS011;55048;52.220;5.160;2023-07-09T04:55:51;10.05;;;5.93;;
68229;SDS011;55048;52.220;5.160;2023-07-09T04:58:17;12.13;;;5.65;;
68229;SDS011;55048;52.220;5.160;2023-07-09T05:00:43;10.00;;;5.63;;
68229;SDS011;55048;52.220;5.160;2023-07-09T05:03:09;10.43;;;6.10;;
68229;SDS011;55048;52.220;5.160;2023-07-09T05:05:34;12.18;;;6.03;;
68229;SDS011;55048;52.220;5.160;2023-07-09T05:08:00;11.25;;;6.28;;
68229;SDS011;55048;52.220;5.160;2023-07-09T05:10:26;7.28;;;5.47;;
68229;SDS011;55048;52.220;5.160;2023-07-09T05:12:52;7.90;;;5.75;;
68229;SDS011;55048;52.220;5.160;2023-07-09T05:15:20;9.88;;;6.10;;
68229;SDS011;55048;52.220;5.160;2023-07-09T05:17:46;10.77;;;6.32;;
68229;SDS011;55048;52.220;5.160;2023-07-09T05:20:15;9.38;;;6.50;;
68229;SDS011;55048;52.220;5.160;2023-07-09T05:22:41;10.60;;;6.00;;
68229;SDS011;55048;52.220;5.160;2023-07-09T05:25:06;10.18;;;6.22;;
68229;SDS011;55048;52.220;5.160;2023-07-09T05:27:32;12.07;;;6.30;;
68229;SDS011;55048;52.220;5.160;2023-07-09T05:29:57;10.10;;;6.25;;
68229;SDS011;55048;52.220;5.160;2023-07-09T05:32:23;13.98;;;6.10;;
68229;SDS011;55048;52.220;5.160;2023-07-09T05:34:49;12.02;;;6.10;;
68229;SDS011;55048;52.220;5.160;2023-07-09T05:37:14;12.30;;;7.00;;
68229;SDS011;55048;52.220;5.160;2023-07-09T05:39:40;12.02;;;6.70;;
68229;SDS011;55048;52.220;5.160;2023-07-09T05:42:05;12.98;;;6.47;;
68229;SDS011;55048;52.220;5.160;2023-07-09T05:44:32;11.90;;;6.18;;
68229;SDS011;55048;52.220;5.160;2023-07-09T05:46:57;14.88;;;7.40;;
68229;SDS011;55048;52.220;5.160;2023-07-09T05:49:23;13.38;;;7.22;;
68229;SDS011;55048;52.220;5.160;2023-07-09T05:51:48;10.63;;;7.03;;
68229;SDS011;55048;52.220;5.160;2023-07-09T05:54:14;12.77;;;7.30;;
68229;SDS011;55048;52.220;5.160;2023-07-09T05:56:39;11.82;;;6.78;;
68229;SDS011;55048;52.220;5.160;2023-07-09T05:59:04;13.38;;;6.80;;
68229;SDS011;55048;52.220;5.160;2023-07-09T06:01:30;9.63;;;6.60;;
68229;SDS011;55048;52.220;5.160;2023-07-09T06:03:55;12.10;;;6.50;;
68229;SDS011;55048;52.220;5.160;2023-07-09T06:06:21;11.73;;;6.93;;
68229;SDS011;55048;52.220;5.160;2023-07-09T06:08:47;12.13;;;6.55;;
68229;SDS011;55048;52.220;5.160;2023-07-09T06:11:13;16.88;;;7.10;;
68229;SDS011;55048;52.220;5.160;2023-07-09T06:13:38;12.52;;;6.75;;
68229;SDS011;55048;52.220;5.160;2023-07-09T06:16:04;9.77;;;5.88;;
68229;SDS011;55048;52.220;5.160;2023-07-09T06:18:30;8.93;;;5.95;;
68229;SDS011;55048;52.220;5.160;2023-07-09T06:20:59;13.45;;;6.47;;
68229;SDS011;55048;52.220;5.160;2023-07-09T06:23:25;16.27;;;6.22;;
68229;SDS011;55048;52.220;5.160;2023-07-09T06:25:51;9.70;;;6.03;;
68229;SDS011;55048;52.220;5.160;2023-07-09T06:28:19;8.73;;;5.78;;
68229;SDS011;55048;52.220;5.160;2023-07-09T06:30:46;10.20;;;5.90;;
68229;SDS011;55048;52.220;5.160;2023-07-09T06:33:13;14.40;;;6.03;;
68229;SDS011;55048;52.220;5.160;2023-07-09T06:35:45;11.32;;;5.43;;
68229;SDS011;55048;52.220;5.160;2023-07-09T06:38:12;11.35;;;5.80;;
68229;SDS011;55048;52.220;5.160;2023-07-09T06:40:37;10.07;;;5.32;;
68229;SDS011;55048;52.220;5.160;2023-07-09T06:43:03;12.82;;;5.65;;
68229;SDS011;55048;52.220;5.160;2023-07-09T06:45:33;12.73;;;5.90;;
68229;SDS011;55048;52.220;5.160;2023-07-09T06:47:59;10.23;;;5.38;;
68229;SDS011;55048;52.220;5.160;2023-07-09T06:50:25;10.85;;;5.03;;
68229;SDS011;55048;52.220;5.160;2023-07-09T06:52:51;13.25;;;4.93;;
68229;SDS011;55048;52.220;5.160;2023-07-09T06:55:16;8.63;;;4.85;;
68229;SDS011;55048;52.220;5.160;2023-07-09T06:57:42;9.50;;;5.55;;
68229;SDS011;55048;52.220;5.160;2023-07-09T07:00:08;5.97;;;4.65;;
68229;SDS011;55048;52.220;5.160;2023-07-09T07:02:34;8.98;;;5.00;;
68229;SDS011;55048;52.220;5.160;2023-07-09T07:04:59;7.40;;;4.82;;
68229;SDS011;55048;52.220;5.160;2023-07-09T07:07:24;8.40;;;5.20;;
68229;SDS011;55048;52.220;5.160;2023-07-09T07:09:50;9.30;;;5.68;;
68229;SDS011;55048;52.220;5.160;2023-07-09T07:12:28;10.27;;;7.20;;
68229;SDS011;55048;52.220;5.160;2023-07-09T07:14:54;18.02;;;8.05;;
68229;SDS011;55048;52.220;5.160;2023-07-09T07:17:21;14.32;;;8.63;;
68229;SDS011;55048;52.220;5.160;2023-07-09T07:19:47;11.10;;;7.47;;
68229;SDS011;55048;52.220;5.160;2023-07-09T07:22:13;14.30;;;8.00;;
68229;SDS011;55048;52.220;5.160;2023-07-09T07:24:38;17.63;;;9.10;;
68229;SDS011;55048;52.220;5.160;2023-07-09T07:27:07;15.13;;;8.98;;
68229;SDS011;55048;52.220;5.160;2023-07-09T07:29:33;11.95;;;8.95;;
68229;SDS011;55048;52.220;5.160;2023-07-09T07:31:59;13.23;;;8.95;;
68229;SDS011;55048;52.220;5.160;2023-07-09T07:34:26;16.98;;;9.60;;
68229;SDS011;55048;52.220;5.160;2023-07-09T07:36:51;20.00;;;9.93;;
68229;SDS011;55048;52.220;5.160;2023-07-09T07:39:17;14.32;;;7.97;;
68229;SDS011;55048;52.220;5.160;2023-07-09T07:41:42;19.15;;;8.43;;
68229;SDS011;55048;52.220;5.160;2023-07-09T07:44:07;16.45;;;8.43;;
68229;SDS011;55048;52.220;5.160;2023-07-09T07:46:33;15.27;;;7.90;;
68229;SDS011;55048;52.220;5.160;2023-07-09T07:49:00;18.48;;;9.25;;
68229;SDS011;55048;52.220;5.160;2023-07-09T07:51:25;13.00;;;8.60;;
68229;SDS011;55048;52.220;5.160;2023-07-09T07:53:51;14.70;;;8.27;;
68229;SDS011;55048;52.220;5.160;2023-07-09T07:56:17;14.23;;;8.77;;
68229;SDS011;55048;52.220;5.160;2023-07-09T07:58:43;17.23;;;8.15;;
68229;SDS011;55048;52.220;5.160;2023-07-09T08:01:08;11.60;;;7.03;;
68229;SDS011;55048;52.220;5.160;2023-07-09T08:03:34;13.75;;;8.88;;
68229;SDS011;55048;52.220;5.160;2023-07-09T08:05:59;20.63;;;8.70;;
68229;SDS011;55048;52.220;5.160;2023-07-09T08:08:25;14.63;;;8.68;;
68229;SDS011;55048;52.220;5.160;2023-07-09T08:10:50;14.77;;;8.00;;
68229;SDS011;55048;52.220;5.160;2023-07-09T08:13:16;13.70;;;8.63;;
68229;SDS011;55048;52.220;5.160;2023-07-09T08:15:41;17.00;;;8.38;;
68229;SDS011;55048;52.220;5.160;2023-07-09T08:18:07;16.15;;;8.68;;
68229;SDS011;55048;52.220;5.160;2023-07-09T08:20:33;17.45;;;8.82;;
68229;SDS011;55048;52.220;5.160;2023-07-09T08:22:58;12.55;;;8.32;;
68229;SDS011;55048;52.220;5.160;2023-07-09T08:25:24;17.55;;;9.57;;
68229;SDS011;55048;52.220;5.160;2023-07-09T08:27:49;19.92;;;11.70;;
68229;SDS011;55048;52.220;5.160;2023-07-09T08:30:15;20.85;;;12.00;;
68229;SDS011;55048;52.220;5.160;2023-07-09T08:32:40;19.40;;;11.25;;
68229;SDS011;55048;52.220;5.160;2023-07-09T08:35:06;21.92;;;13.98;;
68229;SDS011;55048;52.220;5.160;2023-07-09T08:37:32;22.90;;;12.90;;
68229;SDS011;55048;52.220;5.160;2023-07-09T08:39:57;20.58;;;12.48;;
68229;SDS011;55048;52.220;5.160;2023-07-09T08:42:34;21.17;;;11.90;;
68229;SDS011;55048;52.220;5.160;2023-07-09T08:50:44;13.93;;;8.80;;
68229;SDS011;55048;52.220;5.160;2023-07-09T08:53:21;14.60;;;9.18;;
68229;SDS011;55048;52.220;5.160;2023-07-09T08:55:56;12.40;;;8.45;;
68229;SDS011;55048;52.220;5.160;2023-07-09T08:58:25;12.02;;;8.73;;
68229;SDS011;55048;52.220;5.160;2023-07-09T09:00:57;20.25;;;10.25;;
68229;SDS011;55048;52.220;5.160;2023-07-09T09:06:15;12.27;;;8.90;;
68229;SDS011;55048;52.220;5.160;2023-07-09T09:08:46;15.77;;;10.47;;
68229;SDS011;55048;52.220;5.160;2023-07-09T09:11:34;15.18;;;10.13;;
68229;SDS011;55048;52.220;5.160;2023-07-09T09:14:26;15.15;;;9.63;;
68229;SDS011;55048;52.220;5.160;2023-07-09T09:16:52;16.15;;;9.57;;
68229;SDS011;55048;52.220;5.160;2023-07-09T09:19:27;15.02;;;7.72;;
68229;SDS011;55048;52.220;5.160;2023-07-09T09:22:00;11.98;;;8.10;;
68229;SDS011;55048;52.220;5.160;2023-07-09T09:24:35;14.63;;;8.73;;
68229;SDS011;55048;52.220;5.160;2023-07-09T09:27:07;11.00;;;6.63;;
68229;SDS011;55048;52.220;5.160;2023-07-09T09:29:33;14.18;;;6.90;;
68229;SDS011;55048;52.220;5.160;2023-07-09T09:32:17;13.40;;;7.15;;
68229;SDS011;55048;52.220;5.160;2023-07-09T09:34:47;13.02;;;7.32;;
68229;SDS011;55048;52.220;5.160;2023-07-09T09:37:15;11.02;;;7.05;;
68229;SDS011;55048;52.220;5.160;2023-07-09T09:39:53;11.93;;;6.95;;
68229;SDS011;55048;52.220;5.160;2023-07-09T09:42:19;11.70;;;7.03;;
68229;SDS011;55048;52.220;5.160;2023-07-09T09:44:45;9.95;;;6.90;;
68229;SDS011;55048;52.220;5.160;2023-07-09T09:47:11;15.88;;;8.23;;
68229;SDS011;55048;52.220;5.160;2023-07-09T09:49:43;12.65;;;7.97;;
68229;SDS011;55048;52.220;5.160;2023-07-09T09:52:16;11.00;;;7.28;;
68229;SDS011;55048;52.220;5.160;2023-07-09T09:54:55;12.43;;;7.88;;
68229;SDS011;55048;52.220;5.160;2023-07-09T09:57:29;16.45;;;7.57;;
68229;SDS011;55048;52.220;5.160;2023-07-09T09:59:55;16.85;;;7.25;;
68229;SDS011;55048;52.220;5.160;2023-07-09T10:02:21;16.88;;;7.10;;
68229;SDS011;55048;52.220;5.160;2023-07-09T10:04:50;9.95;;;6.13;;
68229;SDS011;55048;52.220;5.160;2023-07-09T10:09:59;11.15;;;6.28;;
68229;SDS011;55048;52.220;5.160;2023-07-09T10:20:41;13.85;;;6.60;;
68229;SDS011;55048;52.220;5.160;2023-07-09T10:28:57;9.48;;;6.07;;
68229;SDS011;55048;52.220;5.160;2023-07-09T10:32:08;9.30;;;5.80;;
68229;SDS011;55048;52.220;5.160;2023-07-09T10:40:04;12.73;;;6.60;;
68229;SDS011;55048;52.220;5.160;2023-07-09T10:42:42;12.13;;;5.68;;
68229;SDS011;55048;52.220;5.160;2023-07-09T10:45:15;8.80;;;5.38;;
68229;SDS011;55048;52.220;5.160;2023-07-09T10:47:48;10.45;;;5.13;;
68229;SDS011;55048;52.220;5.160;2023-07-09T10:50:41;11.45;;;7.10;;
68229;SDS011;55048;52.220;5.160;2023-07-09T10:56:12;8.27;;;6.45;;
68229;SDS011;55048;52.220;5.160;2023-07-09T10:58:43;9.95;;;5.53;;
68229;SDS011;55048;52.220;5.160;2023-07-09T11:01:15;12.25;;;4.93;;
68229;SDS011;55048;52.220;5.160;2023-07-09T11:03:48;8.20;;;4.35;;
68229;SDS011;55048;52.220;5.160;2023-07-09T11:06:58;6.85;;;4.03;;
68229;SDS011;55048;52.220;5.160;2023-07-09T11:09:40;5.10;;;3.25;;
68229;SDS011;55048;52.220;5.160;2023-07-09T11:12:02;4.40;;;2.40;;
68229;SDS011;55048;52.220;5.160;2023-07-09T11:14:37;7.57;;;2.80;;
68229;SDS011;55048;52.220;5.160;2023-07-09T11:17:07;3.50;;;2.20;;
68229;SDS011;55048;52.220;5.160;2023-07-09T11:19:42;6.88;;;2.30;;
68229;SDS011;55048;52.220;5.160;2023-07-09T11:22:21;8.55;;;2.88;;
68229;SDS011;55048;52.220;5.160;2023-07-09T11:25:13;5.85;;;2.42;;
68229;SDS011;55048;52.220;5.160;2023-07-09T11:27:49;5.88;;;2.80;;
68229;SDS011;55048;52.220;5.160;2023-07-09T11:30:18;7.05;;;3.50;;
68229;SDS011;55048;52.220;5.160;2023-07-09T11:32:56;4.13;;;2.85;;
68229;SDS011;55048;52.220;5.160;2023-07-09T11:35:24;5.72;;;2.88;;
68229;SDS011;55048;52.220;5.160;2023-07-09T11:37:52;9.18;;;3.70;;
68229;SDS011;55048;52.220;5.160;2023-07-09T11:40:19;9.38;;;3.88;;
68229;SDS011;55048;52.220;5.160;2023-07-09T11:45:28;6.88;;;3.75;;
68229;SDS011;55048;52.220;5.160;2023-07-09T11:50:41;5.88;;;3.67;;
68229;SDS011;55048;52.220;5.160;2023-07-09T11:55:50;9.82;;;3.00;;
68229;SDS011;55048;52.220;5.160;2023-07-09T11:58:16;6.43;;;2.55;;
68229;SDS011;55048;52.220;5.160;2023-07-09T12:00:45;5.03;;;2.65;;
68229;SDS011;55048;52.220;5.160;2023-07-09T12:03:32;3.88;;;2.83;;
68229;SDS011;55048;52.220;5.160;2023-07-09T12:06:04;4.90;;;2.47;;
68229;SDS011;55048;52.220;5.160;2023-07-09T12:08:40;4.47;;;2.10;;
68229;SDS011;55048;52.220;5.160;2023-07-09T12:11:17;7.70;;;2.00;;
68229;SDS011;55048;52.220;5.160;2023-07-09T12:13:45;14.32;;;2.35;;
68229;SDS011;55048;52.220;5.160;2023-07-09T12:18:46;5.18;;;2.08;;
68229;SDS011;55048;52.220;5.160;2023-07-09T12:21:11;4.25;;;2.17;;
68229;SDS011;55048;52.220;5.160;2023-07-09T12:23:37;6.93;;;2.03;;
68229;SDS011;55048;52.220;5.160;2023-07-09T12:26:05;5.82;;;2.08;;
68229;SDS011;55048;52.220;5.160;2023-07-09T12:28:31;5.57;;;2.50;;
68229;SDS011;55048;52.220;5.160;2023-07-09T12:30:57;4.95;;;2.10;;
68229;SDS011;55048;52.220;5.160;2023-07-09T12:33:24;11.60;;;3.20;;
68229;SDS011;55048;52.220;5.160;2023-07-09T12:36:01;4.78;;;1.90;;
68229;SDS011;55048;52.220;5.160;2023-07-09T12:38:32;5.13;;;2.30;;
68229;SDS011;55048;52.220;5.160;2023-07-09T12:41:15;7.35;;;2.08;;
68229;SDS011;55048;52.220;5.160;2023-07-09T12:43:44;4.43;;;2.17;;
68229;SDS011;55048;52.220;5.160;2023-07-09T12:46:10;4.38;;;2.30;;
68229;SDS011;55048;52.220;5.160;2023-07-09T12:48:36;3.30;;;1.63;;
68229;SDS011;55048;52.220;5.160;2023-07-09T12:51:01;4.45;;;2.20;;
68229;SDS011;55048;52.220;5.160;2023-07-09T12:53:32;3.83;;;2.30;;
68229;SDS011;55048;52.220;5.160;2023-07-09T12:55:58;5.80;;;2.60;;
68229;SDS011;55048;52.220;5.160;2023-07-09T12:58:27;3.63;;;1.77;;
68229;SDS011;55048;52.220;5.160;2023-07-09T13:03:23;7.57;;;2.35;;
68229;SDS011;55048;52.220;5.160;2023-07-09T13:05:57;6.15;;;2.53;;
68229;SDS011;55048;52.220;5.160;2023-07-09T13:08:30;9.85;;;2.30;;
68229;SDS011;55048;52.220;5.160;2023-07-09T13:10:57;4.03;;;2.10;;
68229;SDS011;55048;52.220;5.160;2023-07-09T13:13:24;6.07;;;2.40;;
68229;SDS011;55048;52.220;5.160;2023-07-09T13:15:57;3.45;;;1.88;;
68229;SDS011;55048;52.220;5.160;2023-07-09T13:18:26;6.47;;;2.50;;
68229;SDS011;55048;52.220;5.160;2023-07-09T13:20:53;9.05;;;2.55;;
68229;SDS011;55048;52.220;5.160;2023-07-09T13:23:24;7.10;;;2.20;;
68229;SDS011;55048;52.220;5.160;2023-07-09T13:25:51;3.35;;;2.17;;
68229;SDS011;55048;52.220;5.160;2023-07-09T13:28:22;5.68;;;2.20;;
68229;SDS011;55048;52.220;5.160;2023-07-09T13:30:53;4.18;;;2.10;;
68229;SDS011;55048;52.220;5.160;2023-07-09T13:33:20;7.17;;;1.63;;
68229;SDS011;55048;52.220;5.160;2023-07-09T13:35:46;8.18;;;1.45;;
68229;SDS011;55048;52.220;5.160;2023-07-09T13:38:16;7.38;;;1.50;;
68229;SDS011;55048;52.220;5.160;2023-07-09T13:40:43;10.32;;;1.45;;
68229;SDS011;55048;52.220;5.160;2023-07-09T13:43:14;10.45;;;1.50;;
68229;SDS011;55048;52.220;5.160;2023-07-09T13:45:41;8.30;;;1.90;;
68229;SDS011;55048;52.220;5.160;2023-07-09T13:48:14;5.68;;;1.60;;
68229;SDS011;55048;52.220;5.160;2023-07-09T13:50:41;8.93;;;2.05;;
68229;SDS011;55048;52.220;5.160;2023-07-09T13:53:17;9.38;;;1.52;;
68229;SDS011;55048;52.220;5.160;2023-07-09T13:55:45;5.65;;;1.52;;
68229;SDS011;55048;52.220;5.160;2023-07-09T13:58:12;6.10;;;1.70;;
68229;SDS011;55048;52.220;5.160;2023-07-09T14:00:40;4.57;;;1.67;;
68229;SDS011;55048;52.220;5.160;2023-07-09T14:03:09;5.18;;;1.60;;
68229;SDS011;55048;52.220;5.160;2023-07-09T14:05:40;5.50;;;1.75;;
68229;SDS011;55048;52.220;5.160;2023-07-09T14:08:07;6.10;;;1.60;;
68229;SDS011;55048;52.220;5.160;2023-07-09T14:10:34;10.52;;;1.98;;
68229;SDS011;55048;52.220;5.160;2023-07-09T14:13:00;8.15;;;1.80;;
68229;SDS011;55048;52.220;5.160;2023-07-09T14:15:27;9.15;;;2.17;;
68229;SDS011;55048;52.220;5.160;2023-07-09T14:17:53;7.63;;;1.95;;
68229;SDS011;55048;52.220;5.160;2023-07-09T14:20:21;6.22;;;2.00;;
68229;SDS011;55048;52.220;5.160;2023-07-09T14:22:47;6.30;;;2.13;;
68229;SDS011;55048;52.220;5.160;2023-07-09T14:25:24;11.18;;;2.10;;
68229;SDS011;55048;52.220;5.160;2023-07-09T14:27:51;10.75;;;2.30;;
68229;SDS011;55048;52.220;5.160;2023-07-09T14:30:19;8.10;;;2.20;;
68229;SDS011;55048;52.220;5.160;2023-07-09T14:32:47;12.63;;;2.78;;
68229;SDS011;55048;52.220;5.160;2023-07-09T14:35:19;14.57;;;2.42;;
68229;SDS011;55048;52.220;5.160;2023-07-09T14:37:49;15.82;;;2.90;;
68229;SDS011;55048;52.220;5.160;2023-07-09T14:40:19;10.55;;;2.83;;
68229;SDS011;55048;52.220;5.160;2023-07-09T14:42:46;12.93;;;3.15;;
68229;SDS011;55048;52.220;5.160;2023-07-09T14:45:21;14.02;;;3.08;;
68229;SDS011;55048;52.220;5.160;2023-07-09T14:47:49;11.82;;;3.15;;
68229;SDS011;55048;52.220;5.160;2023-07-09T14:50:15;12.57;;;3.70;;
68229;SDS011;55048;52.220;5.160;2023-07-09T14:52:42;13.75;;;4.38;;
68229;SDS011;55048;52.220;5.160;2023-07-09T14:55:18;19.15;;;3.70;;
68229;SDS011;55048;52.220;5.160;2023-07-09T14:57:46;10.35;;;3.47;;
68229;SDS011;55048;52.220;5.160;2023-07-09T15:00:13;20.88;;;6.05;;
68229;SDS011;55048;52.220;5.160;2023-07-09T15:02:40;21.67;;;7.03;;
68229;SDS011;55048;52.220;5.160;2023-07-09T15:05:11;15.63;;;6.80;;
68229;SDS011;55048;52.220;5.160;2023-07-09T15:07:39;23.52;;;7.57;;
68229;SDS011;55048;52.220;5.160;2023-07-09T15:10:05;24.73;;;7.78;;
68229;SDS011;55048;52.220;5.160;2023-07-09T15:12:34;16.35;;;6.10;;
68229;SDS011;55048;52.220;5.160;2023-07-09T15:17:49;19.95;;;5.80;;
68229;SDS011;55048;52.220;5.160;2023-07-09T15:20:19;10.88;;;5.13;;
68229;SDS011;55048;52.220;5.160;2023-07-09T15:22:47;8.63;;;4.47;;
68229;SDS011;55048;52.220;5.160;2023-07-09T15:25:14;11.45;;;4.38;;
68229;SDS011;55048;52.220;5.160;2023-07-09T15:27:42;11.13;;;4.45;;
68229;SDS011;55048;52.220;5.160;2023-07-09T15:30:18;9.35;;;3.92;;
68229;SDS011;55048;52.220;5.160;2023-07-09T15:32:46;7.78;;;3.85;;
68229;SDS011;55048;52.220;5.160;2023-07-09T15:35:13;10.00;;;4.07;;
68229;SDS011;55048;52.220;5.160;2023-07-09T15:37:39;7.88;;;3.70;;